Terminal Aerodrome Forecast
Issued by NWS

Home | Current Version | Previous Version | Text Only | Print | Product List | Glossary On
Versions: 1 2 3 4 5 6 7 8 9 10 11 12 13 14 15
823
FTUS43 KAPX 241120
TAFTVC
TAF
KTVC 241120Z 2412/2512 20011G20KT P6SM BKN120 WS020/23045KT
     FM241800 21014G25KT P6SM VCSH BKN100 WS020/22050KT
     FM250000 22011G27KT P6SM -SHRA OVC090 WS020/23040KT
     FM250100 23011G26KT 6SM -SHRA OVC070
     FM250300 26010G24KT 3SM -SHRA BKN015
     FM250600 29010G23KT P6SM OVC025
     FM251100 30009KT P6SM BKN040=

USA.gov is the U.S. government's official web portal to all federal, state and local government web resources and services.